createdAt,value
2022-08-17T00:01:24.146Z,100.00
2022-08-17T00:06:57.362Z,99.37
2022-08-17T00:12:42.620Z,98.75
2022-08-17T00:19:06.162Z,99.71
2022-08-17T00:24:04.846Z,100.00
2022-08-17T00:29:34.086Z,99.41
2022-08-17T00:35:05.840Z,97.94
2022-08-17T00:40:40.059Z,100.00
2022-08-17T00:46:15.719Z,100.00
2022-08-17T00:51:48.926Z,100.00
2022-08-17T00:57:22.715Z,100.00
2022-08-17T01:02:52.138Z,100.00
2022-08-17T01:08:24.728Z,100.00
2022-08-17T01:13:55.359Z,100.00
2022-08-17T01:19:26.999Z,100.00
2022-08-17T01:25:01.796Z,100.00
2022-08-17T01:30:57.420Z,100.00
2022-08-17T01:36:19.938Z,100.00
2022-08-17T01:41:52.981Z,100.00
2022-08-17T01:47:21.783Z,100.00
2022-08-17T01:52:52.530Z,100.00
2022-08-17T01:58:22.832Z,100.00
2022-08-17T02:03:54.541Z,100.00
2022-08-17T02:09:29.776Z,100.00
2022-08-17T02:15:00.200Z,100.00
2022-08-17T02:20:41.230Z,100.00
2022-08-17T02:26:25.572Z,100.00
2022-08-17T02:31:58.614Z,100.00
2022-08-17T02:37:28.304Z,100.00
2022-08-17T02:42:56.782Z,100.00
2022-08-17T02:48:30.787Z,100.00
2022-08-17T02:54:38.814Z,100.00
2022-08-17T02:59:49.751Z,100.00
2022-08-17T03:05:22.109Z,100.00
2022-08-17T03:10:51.236Z,100.00
2022-08-17T03:16:19.610Z,100.00
2022-08-17T03:21:55.198Z,100.00
2022-08-17T03:27:23.815Z,100.00
2022-08-17T03:32:54.724Z,100.00
2022-08-17T03:38:25.192Z,100.00
2022-08-17T03:43:54.733Z,100.00
2022-08-17T03:49:40.618Z,100.00
2022-08-17T03:55:32.932Z,100.00
2022-08-17T04:01:05.114Z,98.92
2022-08-17T04:06:33.983Z,99.22
2022-08-17T04:12:04.915Z,98.08
2022-08-17T04:17:33.850Z,97.12
2022-08-17T04:23:03.301Z,96.38
2022-08-17T04:28:34.301Z,94.75
2022-08-17T04:34:02.888Z,93.77
2022-08-17T04:39:33.848Z,93.37
2022-08-17T04:45:05.368Z,93.13
2022-08-17T04:50:34.833Z,93.19
2022-08-17T04:56:03.932Z,91.87
2022-08-17T05:01:35.411Z,90.93
2022-08-17T05:07:04.733Z,89.96
2022-08-17T05:12:33.679Z,89.58
2022-08-17T05:18:04.741Z,89.41
2022-08-17T05:23:41.886Z,88.66
2022-08-17T05:29:11.713Z,87.30
2022-08-17T05:34:42.702Z,85.10
2022-08-17T05:40:11.934Z,84.08
2022-08-17T05:45:54.468Z,83.60
2022-08-17T05:51:42.403Z,82.17
2022-08-17T05:57:33.985Z,80.07
2022-08-17T06:03:13.333Z,78.92
2022-08-17T06:08:51.729Z,78.78
2022-08-17T06:14:30.677Z,78.03
2022-08-17T06:20:03.298Z,76.31
2022-08-17T06:25:36.103Z,72.81
2022-08-17T06:31:07.416Z,62.57
2022-08-17T06:36:43.614Z,53.22
2022-08-17T06:42:58.832Z,49.22
2022-08-17T06:48:13.943Z,43.99
2022-08-17T06:53:45.557Z,40.34
2022-08-17T06:59:17.600Z,38.96
2022-08-17T07:04:48.323Z,36.35
2022-08-17T07:10:17.414Z,35.24
2022-08-17T07:15:46.513Z,35.30
2022-08-17T07:21:26.563Z,34.23
2022-08-17T07:27:04.332Z,33.77
2022-08-17T07:32:35.984Z,32.90
2022-08-17T07:38:24.857Z,31.97
2022-08-17T07:43:54.686Z,31.01
2022-08-17T07:49:25.601Z,28.15
2022-08-17T07:54:56.212Z,29.39
2022-08-17T08:00:31.384Z,30.14
2022-08-17T08:06:02.320Z,30.50
2022-08-17T08:11:33.584Z,31.72
2022-08-17T08:17:03.566Z,30.92
2022-08-17T08:22:38.848Z,30.59
2022-08-17T08:28:15.108Z,33.43
2022-08-17T08:33:49.748Z,34.94
2022-08-17T08:39:22.531Z,34.08
2022-08-17T08:44:59.473Z,33.14
2022-08-17T08:50:40.431Z,32.03
2022-08-17T08:56:12.998Z,34.53
2022-08-17T09:01:49.283Z,37.37
2022-08-17T09:07:24.511Z,41.05
2022-08-17T09:12:59.242Z,44.95
2022-08-17T09:19:02.720Z,44.81
2022-08-17T09:24:24.953Z,41.56
2022-08-17T09:29:57.886Z,38.57
2022-08-17T09:35:32.954Z,37.01
2022-08-17T09:41:10.645Z,36.39
2022-08-17T09:46:42.244Z,36.11
2022-08-17T09:52:17.844Z,36.98
2022-08-17T09:57:52.388Z,37.90
2022-08-17T10:03:28.337Z,39.78
2022-08-17T10:09:07.374Z,40.32
2022-08-17T10:14:43.760Z,42.01
2022-08-17T10:20:16.653Z,42.14
2022-08-17T10:26:05.409Z,38.97
2022-08-17T10:31:39.811Z,37.23
2022-08-17T10:37:16.319Z,38.77
2022-08-17T10:42:48.976Z,40.37
2022-08-17T10:48:28.841Z,41.13
2022-08-17T10:54:01.843Z,42.58
2022-08-17T10:59:52.196Z,42.58
2022-08-17T11:05:23.818Z,42.44
2022-08-17T11:10:59.591Z,39.25
2022-08-17T11:16:37.701Z,39.42
2022-08-17T11:22:22.995Z,38.77
2022-08-17T11:27:53.813Z,39.25
2022-08-17T11:33:41.101Z,39.62
2022-08-17T11:39:22.326Z,39.03
2022-08-17T11:44:54.447Z,38.02
2022-08-17T11:50:45.515Z,38.13
2022-08-17T11:56:32.666Z,38.07
2022-08-17T12:02:03.036Z,40.24
2022-08-17T12:07:33.287Z,41.30
2022-08-17T12:13:06.956Z,41.96
2022-08-17T12:18:38.463Z,40.22
2022-08-17T12:24:13.708Z,38.82
2022-08-17T12:29:45.439Z,37.88
2022-08-17T12:35:20.525Z,37.40
2022-08-17T12:40:54.916Z,35.35
2022-08-17T12:46:28.407Z,35.10
2022-08-17T12:52:03.358Z,36.19
2022-08-17T12:57:33.654Z,36.20
2022-08-17T13:03:06.086Z,35.46
2022-08-17T13:08:36.156Z,36.75
2022-08-17T13:14:10.013Z,36.85
2022-08-17T13:19:49.273Z,37.81
2022-08-17T13:25:17.924Z,38.52
2022-08-17T13:30:47.785Z,40.65
2022-08-17T13:36:28.446Z,44.17
2022-08-17T13:41:57.958Z,46.90
2022-08-17T13:47:26.696Z,54.55
2022-08-17T13:52:58.513Z,55.81
2022-08-17T13:58:28.874Z,52.51
2022-08-17T14:03:58.033Z,53.51
2022-08-17T14:09:33.588Z,53.87
2022-08-17T14:15:05.735Z,54.17
2022-08-17T14:20:35.246Z,53.25
2022-08-17T14:26:05.319Z,53.77
2022-08-17T14:31:37.437Z,56.40
2022-08-17T14:37:06.623Z,54.83
2022-08-17T14:42:37.930Z,52.88
2022-08-17T14:48:07.965Z,50.41
2022-08-17T14:53:37.790Z,48.83
2022-08-17T14:59:07.823Z,49.01
2022-08-17T15:04:36.633Z,50.71
2022-08-17T15:10:05.769Z,52.99
2022-08-17T15:15:35.763Z,55.37
2022-08-17T15:21:04.982Z,56.85
2022-08-17T15:26:33.853Z,59.56
2022-08-17T15:32:04.006Z,61.25
2022-08-17T15:37:33.478Z,59.63
2022-08-17T15:43:05.144Z,59.99
2022-08-17T15:48:42.621Z,60.30
2022-08-17T15:54:17.251Z,61.10
2022-08-17T15:59:54.004Z,60.75
2022-08-17T16:05:31.150Z,62.62
2022-08-17T16:11:00.670Z,63.51
2022-08-17T16:16:31.260Z,63.68
2022-08-17T16:22:00.975Z,64.16
2022-08-17T16:27:29.523Z,64.30
2022-08-17T16:32:59.356Z,64.08
2022-08-17T16:38:30.113Z,64.54
2022-08-17T16:44:10.367Z,65.01
2022-08-17T16:49:45.193Z,64.43
2022-08-17T16:55:15.860Z,63.19
2022-08-17T17:00:45.304Z,64.63
2022-08-17T17:06:18.635Z,65.95
2022-08-17T17:11:52.224Z,67.09
2022-08-17T17:17:24.818Z,68.74
2022-08-17T17:23:00.492Z,70.07
2022-08-17T17:28:33.930Z,71.10
2022-08-17T17:34:05.959Z,73.40
2022-08-17T17:39:43.855Z,73.94
2022-08-17T17:45:18.257Z,73.62
2022-08-17T17:50:50.471Z,73.32
2022-08-17T17:56:44.100Z,73.22
2022-08-17T18:02:42.059Z,73.43
2022-08-17T18:08:16.494Z,75.30
2022-08-17T18:13:55.361Z,75.05
2022-08-17T18:19:27.065Z,74.59
2022-08-17T18:24:57.370Z,74.30
2022-08-17T18:30:28.910Z,74.29
2022-08-17T18:35:59.746Z,73.47
2022-08-17T18:41:35.936Z,73.25
2022-08-17T18:47:09.086Z,73.41
2022-08-17T18:52:39.022Z,73.07
2022-08-17T18:58:15.215Z,73.82
2022-08-17T19:03:44.696Z,73.93
2022-08-17T19:09:32.340Z,74.72
2022-08-17T19:15:01.796Z,75.89
2022-08-17T19:20:31.632Z,76.32
2022-08-17T19:26:05.809Z,77.58
2022-08-17T19:31:55.334Z,81.20
2022-08-17T19:37:32.424Z,83.19
2022-08-17T19:43:05.625Z,84.77
2022-08-17T19:48:40.827Z,85.56
2022-08-17T19:54:14.230Z,84.53
2022-08-17T19:59:49.527Z,84.07
2022-08-17T20:05:20.728Z,84.70
2022-08-17T20:10:54.707Z,85.11
2022-08-17T20:16:24.805Z,85.53
2022-08-17T20:21:55.041Z,86.12
2022-08-17T20:27:31.482Z,86.38
2022-08-17T20:33:03.412Z,85.48
2022-08-17T20:38:43.655Z,84.66
2022-08-17T20:44:12.337Z,85.58
2022-08-17T20:49:50.536Z,85.34
2022-08-17T20:55:51.638Z,84.83
2022-08-17T21:01:36.633Z,85.54
2022-08-17T21:07:25.644Z,87.25
2022-08-17T21:12:57.880Z,87.07
2022-08-17T21:18:31.254Z,86.14
2022-08-17T21:24:08.728Z,87.84
2022-08-17T21:29:52.855Z,88.68
2022-08-17T21:35:30.112Z,89.77
2022-08-17T21:40:59.649Z,92.39
2022-08-17T21:46:30.212Z,93.30
2022-08-17T21:51:58.620Z,95.52
2022-08-17T21:57:30.345Z,95.79
2022-08-17T22:03:00.849Z,95.19
2022-08-17T22:08:29.240Z,94.76
2022-08-17T22:14:05.343Z,96.44
2022-08-17T22:19:35.022Z,98.16
2022-08-17T22:25:05.593Z,99.68
2022-08-17T22:30:37.584Z,99.96
2022-08-17T22:36:10.291Z,99.24
2022-08-17T22:41:41.858Z,98.30
2022-08-17T22:47:29.376Z,97.97
2022-08-17T22:53:17.713Z,97.63
2022-08-17T22:59:09.487Z,97.50
2022-08-17T23:04:41.480Z,97.29
2022-08-17T23:10:10.399Z,97.48
2022-08-17T23:15:40.086Z,97.79
2022-08-17T23:21:09.815Z,98.03
2022-08-17T23:26:42.182Z,97.91
2022-08-17T23:32:12.329Z,98.95
2022-08-17T23:37:42.587Z,100.00
2022-08-17T23:43:24.604Z,100.00
2022-08-17T23:48:55.148Z,100.00
2022-08-17T23:54:28.286Z,100.00
2022-08-17T23:59:57.257Z,100.00
